Big Water, Utah
Current Conditions -  °F | °C
As of 2:46 AM on Sunday 23 Nov 2014 (Local Time) from KBCE Reporting Station
Light Snow Light Snow  
Wind Chill: 15°   Ceiling: 2300
Heat Index: 28°   Visibility: 2mi
Dew Point: 24°   Wind: 18mph
Humidity: 85%   Direction: 330°NNW
Pressure: 29.96"   Gusts: 30mph
Location:  37.2711°N, 111.769°W
Report Text: KBCE 230946Z AUTO 33016G26KT 2SM -SN BR FEW015 OVC023 M02/M04 A2996 RMK AO2 PK WND 32026/0946 P0000 T10221044
Loading
Personal Weather Stations






























Interactive Weather Map New forecast layout! Learn more

10-Day Weather Forecast

Advertisements
Track Severe Weather on mobile